CDT,Max TemperatureF,Mean TemperatureF,Min TemperatureF,Max Dew PointF,MeanDew PointF,Min DewpointF,Max Humidity, Mean Humidity, Min Humidity, Max Sea Level PressureIn, Mean Sea Level PressureIn, Min Sea Level PressureIn, Max VisibilityMiles, Mean VisibilityMiles, Min VisibilityMiles, Max Wind SpeedMPH, Mean Wind SpeedMPH, Max Gust SpeedMPH,PrecipitationIn, CloudCover, Events, WindDirDegrees
2011-10-1,71,55,39,36,33,28,70,47,27,30.27,30.21,30.14,10,10,10,18,12,24,0.00,0,,155
2011-10-2,80,63,46,41,38,36,66,45,23,30.16,30.13,30.07,10,10,10,18,11,23,0.00,0,,159
2011-10-3,80,64,48,41,39,37,71,45,23,30.16,30.12,30.09,10,10,10,23,11,30,0.00,0,,155
2011-10-4,84,68,53,48,43,39,58,43,27,30.11,30.04,29.96,10,10,10,20,12,24,0.00,0,,149
2011-10-5,82,70,57,48,43,34,67,42,19,30.03,29.99,29.93,10,10,10,24,13,33,0.00,0,,156
2011-10-6,78,68,57,45,41,37,55,38,24,29.96,29.89,29.79,10,10,10,34,18,46,0.00,1,,145
2011-10-7,80,71,62,63,53,43,88,53,38,29.86,29.78,29.75,10,10,10,34,22,44,0.01,5,Thunderstorm,178
2011-10-8,66,62,59,63,58,52,100,86,68,30.13,30.02,29.89,10,10,8,15,6,22,0.23,7,,119
2011-10-9,75,65,55,63,55,50,100,80,50,30.19,30.14,30.03,10,9,5,20,11,29,0.01,6,,94
2011-10-10,66,60,55,55,51,46,94,72,49,30.03,29.95,29.88,10,10,10,21,12,25,0.02,5,,174
2011-10-11,73,60,48,54,50,46,93,70,38,29.87,29.81,29.73,10,10,8,16,10,22,0.01,1,Thunderstorm,157
2011-10-12,66,60,53,55,50,43,94,74,43,29.78,29.74,29.69,10,10,10,22,6,28,0.01,5,,260
2011-10-13,62,53,44,46,41,30,93,67,30,29.82,29.78,29.73,10,10,5,25,11,32,0.00,0,,298
2011-10-14,53,48,42,39,38,36,87,69,51,29.96,29.88,29.80,10,10,10,29,14,36,0.00,4,,296
2011-10-15,60,48,37,39,34,27,93,63,27,30.00,29.93,29.85,10,10,8,10,6,,0.00,2,,277
2011-10-16,53,46,39,39,33,27,93,64,35,30.03,29.99,29.91,10,10,10,25,10,32,0.00,1,,299
2011-10-17,55,44,33,32,27,23,81,54,29,30.03,30.00,29.97,10,10,10,23,8,32,0.00,0,,297
2011-10-18,48,39,30,32,26,19,87,60,32,30.14,30.10,30.01,10,10,10,25,12,32,0.00,1,,329
2011-10-19,42,32,23,28,24,18,93,72,57,30.20,30.15,30.12,10,10,10,15,8,18,0.00,4,,356
2011-10-20,50,36,23,32,26,19,100,75,40,30.11,30.07,30.01,10,10,7,8,3,,0.00,0,,326
2011-10-21,64,45,26,37,32,21,93,65,34,30.10,30.03,30.00,10,10,6,16,4,22,0.00,0,,258
2011-10-22,62,46,30,41,36,28,100,67,36,30.16,30.09,29.99,10,10,8,13,3,17,0.00,3,,191
2011-10-23,64,52,39,46,41,34,100,69,39,29.99,29.90,29.86,10,10,7,23,9,30,0.00,1,,257
2011-10-24,64,48,33,39,34,25,100,66,25,30.06,29.99,29.89,10,10,10,17,4,20,0.00,1,,94
2011-10-25,55,48,42,39,37,34,87,68,44,30.08,29.91,29.78,10,10,10,24,17,33,0.00,2,,30
2011-10-26,48,42,37,39,34,28,93,75,46,30.17,30.12,30.08,10,10,9,20,8,23,0.00,5,,316
2011-10-27,51,37,23,32,26,19,100,68,30,30.11,30.09,30.05,10,10,5,12,2,21,0.00,0,,241
2011-10-28,53,40,28,30,24,18,93,57,24,30.15,30.10,30.04,10,10,10,26,10,31,0.00,1,,290
2011-10-29,53,37,21,27,22,16,86,55,30,30.10,29.96,29.82,10,10,10,22,6,28,0.00,2,,132
2011-10-30,48,39,30,37,30,25,87,67,46,30.03,29.93,29.82,10,10,8,26,13,34,0.00,4,,307
2011-10-31,60,42,24,30,26,19,100,61,25,30.04,29.95,29.85,10,10,10,21,6,25,0.00,1,,169